createdAt,value
2018-05-16T00:00:20.544Z,6.95
2018-05-16T00:02:46.755Z,6.28
2018-05-16T00:05:12.922Z,7.07
2018-05-16T00:07:39.114Z,6.80
2018-05-16T00:10:07.014Z,7.10
2018-05-16T00:12:33.190Z,7.05
2018-05-16T00:14:59.390Z,7.65
2018-05-16T00:17:25.554Z,6.53
2018-05-16T00:19:51.736Z,7.45
2018-05-16T00:22:19.027Z,6.62
2018-05-16T00:24:45.204Z,6.62
2018-05-16T00:27:11.418Z,7.50
2018-05-16T00:29:37.627Z,8.52
2018-05-16T00:32:04.906Z,7.70
2018-05-16T00:34:32.808Z,7.87
2018-05-16T00:36:59.002Z,8.25
2018-05-16T00:39:25.249Z,8.73
2018-05-16T00:41:51.370Z,9.38
2018-05-16T00:44:17.542Z,10.00
2018-05-16T00:46:44.864Z,10.70
2018-05-16T00:49:11.022Z,9.63
2018-05-16T00:51:37.219Z,9.52
2018-05-16T00:54:03.406Z,9.60
2018-05-16T00:56:29.591Z,9.50
2018-05-16T00:58:55.772Z,9.50
2018-05-16T01:01:21.990Z,8.77
2018-05-16T01:03:48.431Z,9.07
2018-05-16T01:06:14.606Z,9.38
2018-05-16T01:08:40.816Z,9.93
2018-05-16T01:11:06.994Z,7.95
2018-05-16T01:13:33.213Z,8.02
2018-05-16T01:15:59.408Z,7.82
2018-05-16T01:18:27.347Z,8.57
2018-05-16T01:20:53.560Z,7.90
2018-05-16T01:23:19.732Z,9.13
2018-05-16T01:25:45.923Z,7.70
2018-05-16T01:28:12.078Z,7.25
2018-05-16T01:30:38.292Z,7.72
2018-05-16T01:33:04.546Z,6.62
2018-05-16T01:35:30.711Z,6.60
2018-05-16T01:37:56.902Z,6.55
2018-05-16T01:40:25.202Z,7.18
2018-05-16T01:42:53.145Z,7.40
2018-05-16T01:45:19.352Z,7.23
2018-05-16T01:47:45.515Z,7.93
2018-05-16T01:50:11.725Z,8.63
2018-05-16T01:52:37.898Z,8.38
2018-05-16T01:55:04.120Z,10.85
2018-05-16T01:57:30.330Z,9.27
2018-05-16T01:59:56.504Z,9.80
2018-05-16T02:02:22.683Z,9.48
2018-05-16T02:04:48.891Z,8.90
2018-05-16T02:07:15.073Z,8.80
2018-05-16T02:09:42.363Z,7.32
2018-05-16T02:12:08.558Z,7.32
2018-05-16T02:14:34.748Z,5.65
2018-05-16T02:17:00.936Z,7.18
2018-05-16T02:19:27.122Z,6.68
2018-05-16T02:21:53.287Z,6.28
2018-05-16T02:24:19.451Z,6.90
2018-05-16T02:26:45.678Z,7.00
2018-05-16T02:29:11.835Z,6.97
2018-05-16T02:31:38.015Z,6.82
2018-05-16T02:34:05.573Z,5.67
2018-05-16T02:36:32.006Z,5.82
2018-05-16T02:38:58.514Z,7.53
2018-05-16T02:41:24.979Z,6.50
2018-05-16T02:43:51.476Z,7.43
2018-05-16T02:46:18.767Z,8.63
2018-05-16T02:48:44.986Z,8.23
2018-05-16T02:51:12.887Z,7.60
2018-05-16T02:53:39.066Z,8.37
2018-05-16T02:56:05.250Z,8.60
2018-05-16T02:58:32.904Z,9.47
2018-05-16T03:00:59.100Z,10.10
2018-05-16T03:03:25.291Z,11.03
2018-05-16T03:05:52.567Z,11.33
2018-05-16T03:08:19.844Z,13.07
2018-05-16T03:10:46.036Z,12.37
2018-05-16T03:13:12.194Z,13.13
2018-05-16T03:15:38.401Z,12.77
2018-05-16T03:18:04.584Z,15.17
2018-05-16T03:20:31.896Z,13.10
2018-05-16T03:22:58.107Z,16.87
2018-05-16T03:25:26.017Z,15.90
2018-05-16T03:27:52.192Z,14.00
2018-05-16T03:30:18.358Z,14.00
2018-05-16T03:32:45.654Z,14.83
2018-05-16T03:35:11.811Z,15.90
2018-05-16T03:37:37.971Z,14.70
2018-05-16T03:40:04.167Z,15.77
2018-05-16T03:42:30.397Z,15.23
2018-05-16T03:44:57.692Z,15.35
2018-05-16T03:47:23.882Z,14.90
2018-05-16T03:49:50.094Z,16.60
2018-05-16T03:52:16.246Z,16.17
2018-05-16T03:54:42.454Z,16.70
2018-05-16T03:57:14.827Z,16.65
2018-05-16T03:59:53.330Z,14.85
2018-05-16T04:02:33.362Z,15.93
2018-05-16T04:04:59.571Z,15.10
2018-05-16T04:07:25.730Z,15.15
2018-05-16T04:09:51.898Z,17.33
2018-05-16T04:12:18.087Z,14.60
2018-05-16T04:14:44.251Z,14.32
2018-05-16T04:17:10.423Z,14.25
2018-05-16T04:19:36.610Z,14.77
2018-05-16T04:22:02.856Z,14.35
2018-05-16T04:24:29.086Z,14.68
2018-05-16T04:26:55.287Z,14.25
2018-05-16T04:29:21.498Z,14.40
2018-05-16T04:31:47.667Z,13.73
2018-05-16T04:34:13.882Z,14.93
2018-05-16T04:36:40.095Z,13.98
2018-05-16T04:39:07.244Z,14.20
2018-05-16T04:41:33.742Z,13.30
2018-05-16T04:43:59.926Z,13.93
2018-05-16T04:46:27.918Z,13.90
2018-05-16T04:48:54.104Z,15.65
2018-05-16T04:51:20.301Z,12.47
2018-05-16T04:53:46.479Z,13.00
2018-05-16T04:56:12.639Z,12.73
2018-05-16T04:58:38.858Z,13.35
2018-05-16T05:01:05.072Z,13.15
2018-05-16T05:03:31.258Z,13.97
2018-05-16T05:05:57.779Z,11.12
2018-05-16T05:08:23.955Z,12.02
2018-05-16T05:10:50.332Z,11.90
2018-05-16T05:13:16.511Z,11.40
2018-05-16T05:15:43.105Z,11.20
2018-05-16T05:18:11.033Z,10.25
2018-05-16T05:20:37.179Z,9.50
2018-05-16T05:23:03.390Z,8.97
2018-05-16T05:25:29.575Z,7.80
2018-05-16T05:27:55.795Z,7.12
2018-05-16T05:30:21.975Z,7.53
2018-05-16T05:32:48.341Z,6.00
2018-05-16T05:35:16.293Z,6.50
2018-05-16T05:37:42.458Z,6.28
2018-05-16T05:40:10.787Z,6.03
2018-05-16T05:42:36.986Z,5.50
2018-05-16T05:45:04.335Z,5.40
2018-05-16T05:47:30.503Z,4.60
2018-05-16T05:49:57.807Z,5.20
2018-05-16T05:52:23.990Z,5.15
2018-05-16T05:54:50.146Z,5.30
2018-05-16T05:57:17.430Z,4.53
2018-05-16T05:59:43.756Z,5.03
2018-05-16T06:02:11.154Z,4.75
2018-05-16T06:04:37.527Z,4.18
2018-05-16T06:07:03.754Z,4.32
2018-05-16T06:09:30.020Z,4.97
2018-05-16T06:11:56.233Z,4.40
2018-05-16T06:14:22.426Z,4.68
2018-05-16T06:16:48.655Z,4.28
2018-05-16T06:19:14.870Z,4.25
2018-05-16T06:21:41.083Z,4.32
2018-05-16T06:24:07.278Z,4.50
2018-05-16T06:26:33.466Z,4.65
2018-05-16T06:28:59.650Z,4.28
2018-05-16T06:31:25.837Z,4.47
2018-05-16T06:33:52.014Z,3.92
2018-05-16T06:36:18.352Z,4.85
2018-05-16T06:38:44.551Z,5.00
2018-05-16T06:41:11.852Z,4.37
2018-05-16T06:43:38.027Z,4.43
2018-05-16T06:46:04.237Z,4.60
2018-05-16T06:48:30.425Z,4.60
2018-05-16T06:50:57.707Z,3.65
2018-05-16T06:53:25.370Z,4.28
2018-05-16T06:55:52.684Z,4.75
2018-05-16T06:58:18.886Z,4.45
2018-05-16T07:00:46.174Z,4.07
2018-05-16T07:03:12.342Z,4.40
2018-05-16T07:05:38.570Z,4.00
2018-05-16T07:08:04.732Z,4.97
2018-05-16T07:10:31.464Z,4.90
2018-05-16T07:12:57.768Z,4.68
2018-05-16T07:15:23.977Z,3.35
2018-05-16T07:17:50.167Z,3.67
2018-05-16T07:20:16.356Z,3.53
2018-05-16T07:22:42.613Z,3.35
2018-05-16T07:25:08.752Z,3.60
2018-05-16T07:27:34.928Z,3.55
2018-05-16T07:30:01.131Z,3.15
2018-05-16T07:32:27.428Z,3.55
2018-05-16T07:34:53.546Z,3.22
2018-05-16T07:37:19.726Z,3.40
2018-05-16T07:39:45.896Z,2.83
2018-05-16T07:42:12.225Z,3.87
2018-05-16T07:44:38.454Z,3.33
2018-05-16T07:47:04.744Z,3.47
2018-05-16T07:49:30.863Z,3.85
2018-05-16T07:51:57.040Z,3.03
2018-05-16T07:54:23.289Z,2.10
2018-05-16T07:56:49.451Z,2.58
2018-05-16T07:59:15.711Z,2.95
2018-05-16T08:01:41.972Z,2.75
2018-05-16T08:04:08.174Z,3.10
2018-05-16T08:06:34.380Z,3.10
2018-05-16T08:09:00.649Z,3.20
2018-05-16T08:11:26.896Z,2.45
2018-05-16T08:13:53.015Z,2.60
2018-05-16T08:16:19.208Z,2.97
2018-05-16T08:18:45.398Z,3.28
2018-05-16T08:21:11.639Z,2.62
2018-05-16T08:23:37.842Z,2.42
2018-05-16T08:26:04.055Z,2.97
2018-05-16T08:28:30.230Z,2.50
2018-05-16T08:30:57.554Z,2.83
2018-05-16T08:33:23.716Z,2.65
2018-05-16T08:35:49.976Z,2.45
2018-05-16T08:38:17.897Z,2.78
2018-05-16T08:40:44.068Z,2.60
2018-05-16T08:43:10.263Z,3.42
2018-05-16T08:45:36.463Z,3.15
2018-05-16T08:48:02.642Z,3.12
2018-05-16T08:50:28.868Z,3.25
2018-05-16T08:52:56.162Z,2.70
2018-05-16T08:55:22.399Z,3.28
2018-05-16T08:57:48.576Z,3.33
2018-05-16T09:00:14.987Z,3.35
2018-05-16T09:02:41.259Z,3.30
2018-05-16T09:05:07.542Z,2.80
2018-05-16T09:07:34.921Z,3.70
2018-05-16T09:10:02.433Z,3.30
2018-05-16T09:12:28.770Z,3.15
2018-05-16T09:14:55.232Z,2.92
2018-05-16T09:17:22.139Z,3.12
2018-05-16T09:19:48.513Z,3.60
2018-05-16T09:22:14.781Z,2.92
2018-05-16T09:24:42.489Z,3.42
2018-05-16T09:27:08.906Z,3.10
2018-05-16T09:29:35.413Z,3.30
2018-05-16T09:32:03.685Z,3.22
2018-05-16T09:34:30.853Z,2.60
2018-05-16T09:36:57.055Z,2.70
2018-05-16T09:39:23.245Z,2.95
2018-05-16T09:41:49.424Z,3.20
2018-05-16T09:44:15.628Z,2.97
2018-05-16T09:46:41.807Z,2.92
2018-05-16T09:49:08.050Z,2.72
2018-05-16T09:51:34.326Z,3.08
2018-05-16T09:54:00.494Z,2.67
2018-05-16T09:56:26.701Z,2.95
2018-05-16T09:58:52.877Z,2.83
2018-05-16T10:01:19.087Z,3.28
2018-05-16T10:03:45.296Z,3.10
2018-05-16T10:06:11.495Z,3.12
2018-05-16T10:08:37.686Z,3.42
2018-05-16T10:11:03.937Z,3.33
2018-05-16T10:13:30.143Z,2.90
2018-05-16T10:15:57.467Z,2.87
2018-05-16T10:18:23.664Z,3.17
2018-05-16T10:20:49.883Z,2.67
2018-05-16T10:23:17.290Z,2.75
2018-05-16T10:25:43.576Z,2.60
2018-05-16T10:28:09.775Z,2.60
2018-05-16T10:30:35.947Z,2.22
2018-05-16T10:33:02.176Z,3.20
2018-05-16T10:35:28.353Z,3.40
2018-05-16T10:37:55.664Z,3.30
2018-05-16T10:40:21.848Z,2.83
2018-05-16T10:42:48.023Z,3.03
2018-05-16T10:45:14.219Z,2.87
2018-05-16T10:47:40.407Z,2.70
2018-05-16T10:50:06.564Z,2.47
2018-05-16T10:52:32.746Z,2.62
2018-05-16T10:54:58.911Z,2.65
2018-05-16T10:57:26.222Z,2.78
2018-05-16T10:59:52.431Z,2.72
2018-05-16T11:02:18.666Z,2.67
2018-05-16T11:04:46.205Z,3.05
2018-05-16T11:07:12.390Z,2.30
2018-05-16T11:09:38.583Z,2.08
2018-05-16T11:12:04.755Z,1.95
2018-05-16T11:14:31.181Z,2.10
2018-05-16T11:16:57.376Z,2.25
2018-05-16T11:19:23.600Z,2.53
2018-05-16T11:21:49.782Z,2.10
2018-05-16T11:24:17.148Z,1.62
2018-05-16T11:26:44.150Z,2.22
2018-05-16T11:29:11.423Z,2.40
2018-05-16T11:31:37.647Z,2.15
2018-05-16T11:34:05.063Z,1.98
2018-05-16T11:36:31.335Z,2.22
2018-05-16T11:38:57.466Z,2.20
2018-05-16T11:41:23.659Z,2.03
2018-05-16T11:43:49.879Z,1.98
2018-05-16T11:46:17.158Z,1.95
2018-05-16T11:48:44.081Z,2.10
2018-05-16T11:51:10.303Z,1.77
2018-05-16T11:53:36.475Z,1.77
2018-05-16T11:56:02.687Z,2.42
2018-05-16T11:58:28.869Z,1.65
2018-05-16T12:00:55.791Z,1.80
2018-05-16T12:03:21.980Z,1.62
2018-05-16T12:05:48.896Z,1.65
2018-05-16T12:08:15.102Z,1.55
2018-05-16T12:10:41.331Z,1.98
2018-05-16T12:13:07.510Z,2.10
2018-05-16T12:15:33.722Z,1.90
2018-05-16T12:17:59.898Z,2.05
2018-05-16T12:20:26.114Z,2.00
2018-05-16T12:22:52.319Z,2.17
2018-05-16T12:25:19.234Z,2.03
2018-05-16T12:27:45.445Z,1.98
2018-05-16T12:30:11.608Z,1.73
2018-05-16T12:32:37.842Z,1.58
2018-05-16T12:35:04.033Z,2.03
2018-05-16T12:37:31.358Z,1.80
2018-05-16T12:39:57.559Z,2.17
2018-05-16T12:42:23.752Z,1.90
2018-05-16T12:44:49.999Z,1.83
2018-05-16T12:47:16.181Z,1.58
2018-05-16T12:49:42.394Z,1.98
2018-05-16T12:52:08.564Z,1.75
2018-05-16T12:54:34.770Z,2.00
2018-05-16T12:57:00.972Z,1.87
2018-05-16T12:59:27.150Z,1.62
2018-05-16T13:01:53.338Z,1.48
2018-05-16T13:04:19.498Z,1.92
2018-05-16T13:06:45.727Z,2.20
2018-05-16T13:09:11.915Z,1.33
2018-05-16T13:11:38.163Z,1.45
2018-05-16T13:14:04.373Z,1.60
2018-05-16T13:16:30.664Z,1.58
2018-05-16T13:18:56.835Z,1.37
2018-05-16T13:21:23.115Z,1.20
2018-05-16T13:23:50.352Z,1.75
2018-05-16T13:26:16.547Z,1.52
2018-05-16T13:28:43.870Z,1.08
2018-05-16T13:31:10.048Z,1.25
2018-05-16T13:33:37.007Z,1.40
2018-05-16T13:36:03.286Z,1.20
2018-05-16T13:38:29.482Z,1.05
2018-05-16T13:40:55.680Z,1.27
2018-05-16T13:43:21.859Z,1.62
2018-05-16T13:45:48.069Z,1.40
2018-05-16T13:48:14.291Z,1.40
2018-05-16T13:50:40.534Z,1.37
2018-05-16T13:53:06.737Z,1.75
2018-05-16T13:55:34.144Z,1.90
2018-05-16T13:58:00.356Z,1.62
2018-05-16T14:00:26.527Z,1.83
2018-05-16T14:02:52.719Z,1.67
2018-05-16T14:05:18.924Z,1.85
2018-05-16T14:07:45.163Z,1.55
2018-05-16T14:10:11.366Z,1.50
2018-05-16T14:12:37.535Z,1.90
2018-05-16T14:15:03.752Z,1.90
2018-05-16T14:17:29.958Z,1.83
2018-05-16T14:19:56.143Z,2.08
2018-05-16T14:22:22.326Z,1.58
2018-05-16T14:24:48.521Z,1.70
2018-05-16T14:27:14.810Z,2.22
2018-05-16T14:29:40.986Z,2.03
2018-05-16T14:32:08.287Z,2.22
2018-05-16T14:34:34.590Z,2.50
2018-05-16T14:37:00.700Z,2.55
2018-05-16T14:39:26.912Z,2.40
2018-05-16T14:41:53.123Z,2.15
2018-05-16T14:44:19.356Z,2.42
2018-05-16T14:46:47.270Z,2.50
2018-05-16T14:49:13.474Z,2.33
2018-05-16T14:51:40.770Z,2.75
2018-05-16T14:54:06.939Z,3.55
2018-05-16T14:56:33.170Z,3.58
2018-05-16T14:58:59.378Z,4.32
2018-05-16T15:01:25.604Z,4.35
2018-05-16T15:03:53.230Z,4.93
2018-05-16T15:06:19.391Z,5.03
2018-05-16T15:08:46.723Z,4.78
2018-05-16T15:11:15.485Z,4.97
2018-05-16T15:13:42.056Z,4.25
2018-05-16T15:16:08.570Z,4.85
2018-05-16T15:18:36.537Z,4.10
2018-05-16T15:21:02.766Z,4.03
2018-05-16T15:23:28.975Z,3.80
2018-05-16T15:25:55.298Z,2.95
2018-05-16T15:28:23.287Z,3.65
2018-05-16T15:30:49.527Z,3.05
2018-05-16T15:33:15.754Z,3.37
2018-05-16T15:35:43.198Z,3.28
2018-05-16T15:38:09.597Z,3.62
2018-05-16T15:40:35.873Z,3.78
2018-05-16T15:43:02.194Z,3.62
2018-05-16T15:45:28.918Z,3.40
2018-05-16T15:47:55.147Z,3.78
2018-05-16T15:50:22.486Z,3.62
2018-05-16T15:52:48.818Z,3.90
2018-05-16T15:55:15.074Z,3.85
2018-05-16T15:57:41.545Z,3.53
2018-05-16T16:00:07.834Z,4.47
2018-05-16T16:02:34.047Z,5.00
2018-05-16T16:05:01.535Z,3.92
2018-05-16T16:07:27.800Z,3.75
2018-05-16T16:09:54.137Z,4.47
2018-05-16T16:12:20.463Z,4.85
2018-05-16T16:14:48.497Z,3.95
2018-05-16T16:17:15.771Z,3.53
2018-05-16T16:19:41.959Z,2.92
2018-05-16T16:22:08.232Z,2.35
2018-05-16T16:24:34.423Z,2.17
2018-05-16T16:27:02.375Z,2.30
2018-05-16T16:29:28.587Z,1.80
2018-05-16T16:31:54.797Z,2.65
2018-05-16T16:34:21.076Z,2.87
2018-05-16T16:36:47.280Z,2.20
2018-05-16T16:39:13.699Z,2.12
2018-05-16T16:41:40.024Z,2.80
2018-05-16T16:44:06.267Z,2.17
2018-05-16T16:46:32.578Z,2.08
2018-05-16T16:48:58.842Z,2.00
2018-05-16T16:51:25.065Z,2.70
2018-05-16T16:53:51.276Z,2.78
2018-05-16T16:56:17.622Z,2.15
2018-05-16T16:58:43.989Z,2.60
2018-05-16T17:01:10.255Z,2.12
2018-05-16T17:03:36.566Z,2.62
2018-05-16T17:06:02.869Z,2.37
2018-05-16T17:08:30.353Z,1.90
2018-05-16T17:10:56.818Z,2.30
2018-05-16T17:13:23.008Z,1.77
2018-05-16T17:15:49.570Z,2.35
2018-05-16T17:18:15.798Z,2.30
2018-05-16T17:20:42.386Z,2.22
2018-05-16T17:23:10.414Z,2.42
2018-05-16T17:25:36.678Z,2.58
2018-05-16T17:28:03.038Z,2.30
2018-05-16T17:30:29.419Z,2.08
2018-05-16T17:32:55.738Z,2.53
2018-05-16T17:35:23.162Z,2.28
2018-05-16T17:37:49.354Z,2.62
2018-05-16T17:40:17.313Z,2.45
2018-05-16T17:42:43.559Z,2.12
2018-05-16T17:45:10.039Z,2.28
2018-05-16T17:47:36.244Z,2.35
2018-05-16T17:50:03.731Z,2.53
2018-05-16T17:52:30.044Z,2.20
2018-05-16T17:54:56.227Z,2.50
2018-05-16T17:57:22.586Z,2.65
2018-05-16T17:59:48.802Z,2.70
2018-05-16T18:02:15.077Z,2.30
2018-05-16T18:04:41.405Z,2.78
2018-05-16T18:07:07.730Z,2.80
2018-05-16T18:09:33.947Z,3.35
2018-05-16T18:12:00.155Z,2.90
2018-05-16T18:17:44.356Z,3.47
2018-05-16T18:20:10.551Z,3.15
2018-05-16T18:22:37.878Z,3.70
2018-05-16T18:25:04.106Z,3.08
2018-05-16T18:27:30.283Z,2.67
2018-05-16T18:29:56.481Z,2.90
2018-05-16T18:32:22.661Z,3.58
2018-05-16T18:34:48.930Z,3.67
2018-05-16T18:37:15.118Z,4.22
2018-05-16T18:39:41.417Z,3.47
2018-05-16T18:42:07.750Z,3.40
2018-05-16T18:44:35.038Z,3.72
2018-05-16T18:47:01.520Z,3.10
2018-05-16T18:49:27.860Z,3.50
2018-05-16T18:51:54.055Z,3.22
2018-05-16T18:54:21.479Z,3.47
2018-05-16T18:56:47.787Z,3.03
2018-05-16T18:59:14.111Z,3.37
2018-05-16T19:01:41.399Z,3.87
2018-05-16T19:04:07.740Z,3.78
2018-05-16T19:06:33.983Z,3.70
2018-05-16T19:09:00.170Z,3.90
2018-05-16T19:11:26.402Z,4.03
2018-05-16T19:13:54.538Z,3.62
2018-05-16T19:16:20.721Z,3.87
2018-05-16T19:18:46.930Z,4.25
2018-05-16T19:21:13.113Z,3.55
2018-05-16T19:23:39.334Z,3.85
2018-05-16T19:26:05.490Z,3.65
2018-05-16T19:28:31.741Z,3.70
2018-05-16T19:30:57.947Z,3.40
2018-05-16T19:33:24.239Z,4.30
2018-05-16T19:35:50.542Z,4.12
2018-05-16T19:38:16.715Z,3.72
2018-05-16T19:40:42.937Z,4.28
2018-05-16T19:43:09.186Z,4.90
2018-05-16T19:45:35.368Z,4.65
2018-05-16T19:48:01.640Z,4.10
2018-05-16T19:50:27.858Z,3.87
2018-05-16T19:52:54.130Z,4.30
2018-05-16T19:55:20.410Z,4.45
2018-05-16T19:57:47.039Z,4.55
2018-05-16T20:00:13.395Z,4.07
2018-05-16T20:02:39.757Z,4.68
2018-05-16T20:05:07.219Z,4.50
2018-05-16T20:07:33.534Z,4.45
2018-05-16T20:09:59.953Z,4.18
2018-05-16T20:12:26.183Z,4.28
2018-05-16T20:14:52.518Z,4.75
2018-05-16T20:17:18.749Z,4.60
2018-05-16T20:19:46.159Z,3.78
2018-05-16T20:22:12.466Z,3.80
2018-05-16T20:24:40.369Z,4.18
2018-05-16T20:27:06.546Z,4.47
2018-05-16T20:29:32.839Z,4.78
2018-05-16T20:31:59.082Z,4.50
2018-05-16T20:34:25.364Z,4.28
2018-05-16T20:36:51.646Z,4.47
2018-05-16T20:39:18.129Z,4.10
2018-05-16T20:41:44.335Z,4.50
2018-05-16T20:44:10.531Z,3.92
2018-05-16T20:46:36.774Z,4.25
2018-05-16T20:49:03.013Z,4.78
2018-05-16T20:51:29.233Z,4.10
2018-05-16T20:53:55.424Z,4.25
2018-05-16T20:56:21.632Z,4.72
2018-05-16T20:58:47.818Z,4.95
2018-05-16T21:01:13.998Z,4.75
2018-05-16T21:03:40.255Z,5.12
2018-05-16T21:06:06.439Z,4.90
2018-05-16T21:08:32.654Z,4.70
2018-05-16T21:10:58.862Z,4.72
2018-05-16T21:13:25.126Z,4.72
2018-05-16T21:15:51.567Z,4.80
2018-05-16T21:18:18.081Z,5.15
2018-05-16T21:20:45.738Z,5.50
2018-05-16T21:23:13.363Z,5.37
2018-05-16T21:25:39.873Z,5.45
2018-05-16T21:28:07.212Z,5.00
2018-05-16T21:30:33.399Z,4.80
2018-05-16T21:32:59.575Z,4.68
2018-05-16T21:35:25.738Z,5.53
2018-05-16T21:37:52.058Z,5.40
2018-05-16T21:40:18.242Z,5.70
2018-05-16T21:42:46.250Z,5.15
2018-05-16T21:45:12.418Z,5.20
2018-05-16T21:47:38.623Z,5.57
2018-05-16T21:50:04.878Z,5.80
2018-05-16T21:52:31.055Z,5.53
2018-05-16T21:54:57.275Z,6.43
2018-05-16T21:57:23.442Z,5.22
2018-05-16T21:59:49.618Z,5.95
2018-05-16T22:02:17.551Z,5.47
2018-05-16T22:04:43.739Z,5.78
2018-05-16T22:07:11.065Z,5.90
2018-05-16T22:09:37.234Z,6.05
2018-05-16T22:12:04.523Z,6.43
2018-05-16T22:14:30.712Z,5.50
2018-05-16T22:16:56.874Z,5.70
2018-05-16T22:19:24.565Z,5.93
2018-05-16T22:21:52.463Z,6.47
2018-05-16T22:24:18.638Z,5.93
2018-05-16T22:26:44.835Z,5.85
2018-05-16T22:29:11.062Z,6.72
2018-05-16T22:31:43.344Z,6.43
2018-05-16T22:34:15.776Z,6.00
2018-05-16T22:36:48.272Z,6.55
2018-05-16T22:39:20.620Z,6.50
2018-05-16T22:41:52.899Z,6.78
2018-05-16T22:47:23.170Z,6.75
2018-05-16T22:49:50.446Z,6.50
2018-05-16T22:52:17.742Z,6.75
2018-05-16T22:54:43.975Z,6.37
2018-05-16T22:57:10.196Z,6.47
2018-05-16T22:59:36.394Z,7.32
2018-05-16T23:02:02.587Z,5.78
2018-05-16T23:04:28.762Z,6.43
2018-05-16T23:06:54.964Z,6.53
2018-05-16T23:09:21.131Z,6.55
2018-05-16T23:11:47.319Z,6.00
2018-05-16T23:14:13.518Z,6.85
2018-05-16T23:16:39.698Z,6.62
2018-05-16T23:19:05.907Z,6.70
2018-05-16T23:21:32.116Z,7.10
2018-05-16T23:23:58.299Z,7.35
2018-05-16T23:26:24.603Z,6.82
2018-05-16T23:28:50.775Z,6.80
2018-05-16T23:31:16.958Z,7.60
2018-05-16T23:33:44.266Z,6.93
2018-05-16T23:36:10.454Z,8.65
2018-05-16T23:38:37.741Z,7.53
2018-05-16T23:41:03.928Z,7.87
2018-05-16T23:43:30.128Z,7.85
2018-05-16T23:45:56.301Z,7.22
2018-05-16T23:48:22.530Z,7.12
2018-05-16T23:50:48.701Z,8.68
2018-05-16T23:53:14.895Z,7.97
2018-05-16T23:55:41.088Z,7.30
2018-05-16T23:58:07.273Z,7.68
